sensor_id;sensor_type;location;lat;lon;timestamp;pressure;altitude;pressure_sealevel;temperature;humidity
13734;BME280;43298;52.560;13.508;2023-05-22T00:01:21;101196.69;;;19.72;85.38
13734;BME280;43298;52.560;13.508;2023-05-22T00:03:47;101196.91;;;19.69;85.63
13734;BME280;43298;52.560;13.508;2023-05-22T00:06:15;101197.25;;;19.64;85.80
13734;BME280;43298;52.560;13.508;2023-05-22T00:08:43;101200.09;;;19.61;85.32
13734;BME280;43298;52.560;13.508;2023-05-22T00:11:09;101207.25;;;19.59;85.86
13734;BME280;43298;52.560;13.508;2023-05-22T00:13:35;101201.56;;;19.53;86.36
13734;BME280;43298;52.560;13.508;2023-05-22T00:16:01;101202.63;;;19.50;85.91
13734;BME280;43298;52.560;13.508;2023-05-22T00:18:27;101206.44;;;19.46;86.14
13734;BME280;43298;52.560;13.508;2023-05-22T00:20:53;101197.53;;;19.36;87.09
13734;BME280;43298;52.560;13.508;2023-05-22T00:23:19;101200.34;;;19.33;86.78
13734;BME280;43298;52.560;13.508;2023-05-22T00:25:46;101191.66;;;19.33;86.45
13734;BME280;43298;52.560;13.508;2023-05-22T00:28:12;101198.91;;;19.29;86.63
13734;BME280;43298;52.560;13.508;2023-05-22T00:30:38;101189.38;;;19.28;86.79
13734;BME280;43298;52.560;13.508;2023-05-22T00:33:04;101191.75;;;19.19;87.25
13734;BME280;43298;52.560;13.508;2023-05-22T00:35:29;101196.56;;;19.12;87.02
13734;BME280;43298;52.560;13.508;2023-05-22T00:37:55;101193.66;;;19.17;86.97
13734;BME280;43298;52.560;13.508;2023-05-22T00:40:21;101187.91;;;19.12;87.60
13734;BME280;43298;52.560;13.508;2023-05-22T00:42:47;101191.78;;;19.06;87.20
13734;BME280;43298;52.560;13.508;2023-05-22T00:45:14;101184.44;;;18.99;87.42
13734;BME280;43298;52.560;13.508;2023-05-22T00:47:40;101187.81;;;18.88;88.27
13734;BME280;43298;52.560;13.508;2023-05-22T00:50:08;101189.69;;;18.86;87.85
13734;BME280;43298;52.560;13.508;2023-05-22T00:52:40;101185.50;;;18.84;88.37
13734;BME280;43298;52.560;13.508;2023-05-22T00:55:08;101181.31;;;18.69;90.06
13734;BME280;43298;52.560;13.508;2023-05-22T00:57:34;101182.97;;;18.57;90.30
13734;BME280;43298;52.560;13.508;2023-05-22T01:00:02;101184.31;;;18.50;90.26
13734;BME280;43298;52.560;13.508;2023-05-22T01:02:30;101183.56;;;18.48;90.43
13734;BME280;43298;52.560;13.508;2023-05-22T01:04:57;101182.44;;;18.40;91.17
13734;BME280;43298;52.560;13.508;2023-05-22T01:07:24;101184.41;;;18.36;91.26
13734;BME280;43298;52.560;13.508;2023-05-22T01:09:50;101181.22;;;18.31;91.50
13734;BME280;43298;52.560;13.508;2023-05-22T01:12:46;101181.44;;;18.28;91.76
13734;BME280;43298;52.560;13.508;2023-05-22T01:18:30;101172.47;;;18.06;93.30
13734;BME280;43298;52.560;13.508;2023-05-22T01:21:08;101169.00;;;18.05;92.86
13734;BME280;43298;52.560;13.508;2023-05-22T01:27:12;101172.13;;;17.98;93.52
13734;BME280;43298;52.560;13.508;2023-05-22T01:33:02;101175.03;;;17.93;93.09
13734;BME280;43298;52.560;13.508;2023-05-22T01:35:29;101170.09;;;17.88;93.52
13734;BME280;43298;52.560;13.508;2023-05-22T01:37:58;101165.38;;;17.81;93.43
13734;BME280;43298;52.560;13.508;2023-05-22T01:40:25;101172.19;;;17.83;93.74
13734;BME280;43298;52.560;13.508;2023-05-22T01:42:51;101168.91;;;17.80;93.41
13734;BME280;43298;52.560;13.508;2023-05-22T01:45:17;101166.28;;;17.80;93.27
13734;BME280;43298;52.560;13.508;2023-05-22T01:47:43;101160.34;;;17.78;93.03
13734;BME280;43298;52.560;13.508;2023-05-22T01:50:09;101166.41;;;17.78;92.73
13734;BME280;43298;52.560;13.508;2023-05-22T01:55:12;101167.63;;;17.73;92.99
13734;BME280;43298;52.560;13.508;2023-05-22T02:01:04;101175.13;;;17.65;93.35
13734;BME280;43298;52.560;13.508;2023-05-22T02:03:34;101175.72;;;17.56;94.08
13734;BME280;43298;52.560;13.508;2023-05-22T02:06:05;101168.28;;;17.50;94.39
13734;BME280;43298;52.560;13.508;2023-05-22T02:08:34;101175.25;;;17.49;94.20
13734;BME280;43298;52.560;13.508;2023-05-22T02:11:03;101171.41;;;17.41;95.12
13734;BME280;43298;52.560;13.508;2023-05-22T02:13:30;101172.00;;;17.32;95.74
13734;BME280;43298;52.560;13.508;2023-05-22T02:15:57;101164.63;;;17.24;96.55
13734;BME280;43298;52.560;13.508;2023-05-22T02:18:27;101164.81;;;17.21;96.41
13734;BME280;43298;52.560;13.508;2023-05-22T02:20:59;101157.53;;;17.26;95.80
13734;BME280;43298;52.560;13.508;2023-05-22T02:23:28;101164.16;;;17.32;95.50
13734;BME280;43298;52.560;13.508;2023-05-22T02:25:54;101162.38;;;17.32;94.90
13734;BME280;43298;52.560;13.508;2023-05-22T02:28:20;101164.63;;;17.24;95.71
13734;BME280;43298;52.560;13.508;2023-05-22T02:30:46;101162.50;;;17.17;96.59
13734;BME280;43298;52.560;13.508;2023-05-22T02:33:11;101157.47;;;17.14;96.10
13734;BME280;43298;52.560;13.508;2023-05-22T02:35:37;101162.38;;;17.18;95.83
13734;BME280;43298;52.560;13.508;2023-05-22T02:38:04;101161.00;;;17.13;95.91
13734;BME280;43298;52.560;13.508;2023-05-22T02:40:30;101164.72;;;17.09;96.26
13734;BME280;43298;52.560;13.508;2023-05-22T02:42:55;101166.81;;;17.04;96.56
13734;BME280;43298;52.560;13.508;2023-05-22T02:45:21;101163.66;;;16.99;96.85
13734;BME280;43298;52.560;13.508;2023-05-22T02:47:47;101162.97;;;16.95;96.92
13734;BME280;43298;52.560;13.508;2023-05-22T02:50:13;101164.19;;;16.90;97.58
13734;BME280;43298;52.560;13.508;2023-05-22T02:52:39;101164.56;;;16.84;98.42
13734;BME280;43298;52.560;13.508;2023-05-22T02:55:05;101167.16;;;16.84;97.97
13734;BME280;43298;52.560;13.508;2023-05-22T02:57:32;101169.94;;;16.81;98.19
13734;BME280;43298;52.560;13.508;2023-05-22T02:59:58;101163.16;;;16.78;98.70
13734;BME280;43298;52.560;13.508;2023-05-22T03:02:27;101160.81;;;16.74;99.15
13734;BME280;43298;52.560;13.508;2023-05-22T03:04:54;101154.09;;;16.70;99.76
13734;BME280;43298;52.560;13.508;2023-05-22T03:07:20;101159.63;;;16.65;99.84
13734;BME280;43298;52.560;13.508;2023-05-22T03:09:46;101160.63;;;16.63;100.00
13734;BME280;43298;52.560;13.508;2023-05-22T03:12:12;101154.84;;;16.58;100.00
13734;BME280;43298;52.560;13.508;2023-05-22T03:14:37;101152.66;;;16.50;100.00
13734;BME280;43298;52.560;13.508;2023-05-22T03:17:03;101146.81;;;16.47;100.00
13734;BME280;43298;52.560;13.508;2023-05-22T03:19:29;101145.38;;;16.41;100.00
13734;BME280;43298;52.560;13.508;2023-05-22T03:21:55;101145.22;;;16.44;100.00
13734;BME280;43298;52.560;13.508;2023-05-22T03:24:21;101138.31;;;16.43;100.00
13734;BME280;43298;52.560;13.508;2023-05-22T03:26:46;101139.28;;;16.41;100.00
13734;BME280;43298;52.560;13.508;2023-05-22T03:29:12;101144.38;;;16.44;100.00
13734;BME280;43298;52.560;13.508;2023-05-22T03:31:38;101139.38;;;16.39;100.00
13734;BME280;43298;52.560;13.508;2023-05-22T03:34:04;101141.34;;;16.36;100.00
13734;BME280;43298;52.560;13.508;2023-05-22T03:36:30;101142.38;;;16.33;100.00
13734;BME280;43298;52.560;13.508;2023-05-22T03:38:58;101136.13;;;16.36;100.00
13734;BME280;43298;52.560;13.508;2023-05-22T03:41:24;101140.41;;;16.37;100.00
13734;BME280;43298;52.560;13.508;2023-05-22T03:43:50;101143.38;;;16.31;100.00
13734;BME280;43298;52.560;13.508;2023-05-22T03:46:16;101144.03;;;16.34;100.00
13734;BME280;43298;52.560;13.508;2023-05-22T03:48:42;101138.75;;;16.36;100.00
13734;BME280;43298;52.560;13.508;2023-05-22T03:51:07;101139.84;;;16.32;100.00
13734;BME280;43298;52.560;13.508;2023-05-22T03:53:33;101142.38;;;16.33;100.00
13734;BME280;43298;52.560;13.508;2023-05-22T03:55:59;101138.25;;;16.29;100.00
13734;BME280;43298;52.560;13.508;2023-05-22T03:58:25;101149.44;;;16.31;100.00
13734;BME280;43298;52.560;13.508;2023-05-22T04:00:55;101135.44;;;16.32;100.00
13734;BME280;43298;52.560;13.508;2023-05-22T04:03:23;101139.09;;;16.30;100.00
13734;BME280;43298;52.560;13.508;2023-05-22T04:05:49;101138.34;;;16.28;100.00
13734;BME280;43298;52.560;13.508;2023-05-22T04:08:16;101132.09;;;16.30;100.00
13734;BME280;43298;52.560;13.508;2023-05-22T04:10:42;101134.81;;;16.29;100.00
13734;BME280;43298;52.560;13.508;2023-05-22T04:13:15;101135.38;;;16.34;100.00
13734;BME280;43298;52.560;13.508;2023-05-22T04:15:41;101138.47;;;16.40;100.00
13734;BME280;43298;52.560;13.508;2023-05-22T04:18:11;101137.31;;;16.46;100.00
13734;BME280;43298;52.560;13.508;2023-05-22T04:20:37;101136.91;;;16.52;100.00
13734;BME280;43298;52.560;13.508;2023-05-22T04:23:03;101146.91;;;16.59;100.00
13734;BME280;43298;52.560;13.508;2023-05-22T04:25:29;101142.34;;;16.63;100.00
13734;BME280;43298;52.560;13.508;2023-05-22T04:27:56;101143.66;;;16.70;100.00
13734;BME280;43298;52.560;13.508;2023-05-22T04:30:22;101142.66;;;16.72;100.00
13734;BME280;43298;52.560;13.508;2023-05-22T04:32:50;101143.00;;;16.80;100.00
13734;BME280;43298;52.560;13.508;2023-05-22T04:35:15;101144.41;;;16.86;100.00
13734;BME280;43298;52.560;13.508;2023-05-22T04:37:43;101141.44;;;16.92;100.00
13734;BME280;43298;52.560;13.508;2023-05-22T04:40:11;101147.97;;;16.99;100.00
13734;BME280;43298;52.560;13.508;2023-05-22T04:42:37;101142.34;;;17.05;100.00
13734;BME280;43298;52.560;13.508;2023-05-22T04:45:05;101150.09;;;17.06;100.00
13734;BME280;43298;52.560;13.508;2023-05-22T04:47:30;101144.69;;;17.09;100.00
13734;BME280;43298;52.560;13.508;2023-05-22T04:50:00;101149.44;;;17.17;100.00
13734;BME280;43298;52.560;13.508;2023-05-22T04:52:27;101147.72;;;17.30;100.00
13734;BME280;43298;52.560;13.508;2023-05-22T04:54:53;101142.91;;;17.24;100.00
13734;BME280;43298;52.560;13.508;2023-05-22T04:57:20;101141.78;;;17.42;100.00
13734;BME280;43298;52.560;13.508;2023-05-22T04:59:46;101141.25;;;17.35;100.00
13734;BME280;43298;52.560;13.508;2023-05-22T05:02:13;101134.28;;;17.36;100.00
13734;BME280;43298;52.560;13.508;2023-05-22T05:04:39;101134.03;;;17.26;100.00
13734;BME280;43298;52.560;13.508;2023-05-22T05:07:05;101128.69;;;17.42;100.00
13734;BME280;43298;52.560;13.508;2023-05-22T05:09:32;101129.88;;;17.50;100.00
13734;BME280;43298;52.560;13.508;2023-05-22T05:11:58;101138.94;;;17.45;100.00
13734;BME280;43298;52.560;13.508;2023-05-22T05:14:24;101134.47;;;17.47;100.00
13734;BME280;43298;52.560;13.508;2023-05-22T05:16:50;101132.78;;;17.46;100.00
13734;BME280;43298;52.560;13.508;2023-05-22T05:19:17;101131.47;;;17.53;100.00
13734;BME280;43298;52.560;13.508;2023-05-22T05:21:46;101138.75;;;17.48;100.00
13734;BME280;43298;52.560;13.508;2023-05-22T05:24:17;101135.59;;;17.43;100.00
13734;BME280;43298;52.560;13.508;2023-05-22T05:26:43;101136.69;;;17.53;100.00
13734;BME280;43298;52.560;13.508;2023-05-22T05:29:09;101140.41;;;17.63;100.00
13734;BME280;43298;52.560;13.508;2023-05-22T05:31:36;101137.47;;;17.67;100.00
13734;BME280;43298;52.560;13.508;2023-05-22T05:34:01;101141.75;;;17.56;100.00
13734;BME280;43298;52.560;13.508;2023-05-22T05:36:28;101145.16;;;17.56;100.00
13734;BME280;43298;52.560;13.508;2023-05-22T05:38:54;101146.16;;;17.68;100.00
13734;BME280;43298;52.560;13.508;2023-05-22T05:41:21;101148.13;;;17.64;100.00
13734;BME280;43298;52.560;13.508;2023-05-22T05:43:47;101147.50;;;17.61;100.00
13734;BME280;43298;52.560;13.508;2023-05-22T05:46:13;101151.13;;;17.72;100.00
13734;BME280;43298;52.560;13.508;2023-05-22T05:48:39;101149.81;;;17.92;100.00
13734;BME280;43298;52.560;13.508;2023-05-22T05:51:05;101154.44;;;18.01;100.00
13734;BME280;43298;52.560;13.508;2023-05-22T05:53:31;101147.75;;;18.10;100.00
13734;BME280;43298;52.560;13.508;2023-05-22T05:55:57;101157.88;;;18.28;100.00
13734;BME280;43298;52.560;13.508;2023-05-22T05:58:23;101154.03;;;18.46;100.00
13734;BME280;43298;52.560;13.508;2023-05-22T06:00:48;101147.75;;;18.61;100.00
13734;BME280;43298;52.560;13.508;2023-05-22T06:03:14;101151.84;;;18.65;100.00
13734;BME280;43298;52.560;13.508;2023-05-22T06:05:42;101147.22;;;18.94;100.00
13734;BME280;43298;52.560;13.508;2023-05-22T06:08:08;101147.53;;;19.02;100.00
13734;BME280;43298;52.560;13.508;2023-05-22T06:10:34;101134.28;;;19.16;100.00
13734;BME280;43298;52.560;13.508;2023-05-22T06:13:00;101138.09;;;19.48;99.53
13734;BME280;43298;52.560;13.508;2023-05-22T06:15:26;101137.72;;;20.12;97.81
13734;BME280;43298;52.560;13.508;2023-05-22T06:17:52;101136.00;;;20.34;94.23
13734;BME280;43298;52.560;13.508;2023-05-22T06:20:17;101130.44;;;20.83;93.04
13734;BME280;43298;52.560;13.508;2023-05-22T06:22:43;101136.06;;;20.67;92.97
13734;BME280;43298;52.560;13.508;2023-05-22T06:25:09;101138.78;;;20.66;91.63
13734;BME280;43298;52.560;13.508;2023-05-22T06:27:35;101133.28;;;20.47;93.50
13734;BME280;43298;52.560;13.508;2023-05-22T06:30:01;101129.78;;;20.35;93.68
13734;BME280;43298;52.560;13.508;2023-05-22T06:32:27;101125.38;;;20.36;93.17
13734;BME280;43298;52.560;13.508;2023-05-22T06:34:53;101138.56;;;20.58;94.38
13734;BME280;43298;52.560;13.508;2023-05-22T06:37:18;101129.13;;;20.67;92.63
13734;BME280;43298;52.560;13.508;2023-05-22T06:39:44;101131.97;;;20.63;94.26
13734;BME280;43298;52.560;13.508;2023-05-22T06:42:10;101130.06;;;20.65;93.48
13734;BME280;43298;52.560;13.508;2023-05-22T06:44:36;101128.41;;;20.76;92.97
13734;BME280;43298;52.560;13.508;2023-05-22T06:47:01;101129.16;;;21.11;91.91
13734;BME280;43298;52.560;13.508;2023-05-22T06:49:27;101140.03;;;20.95;92.06
13734;BME280;43298;52.560;13.508;2023-05-22T06:51:53;101132.84;;;21.19;92.44
13734;BME280;43298;52.560;13.508;2023-05-22T06:54:19;101124.94;;;21.30;91.22
13734;BME280;43298;52.560;13.508;2023-05-22T06:56:46;101122.66;;;21.48;89.83
13734;BME280;43298;52.560;13.508;2023-05-22T06:59:12;101125.38;;;21.35;90.38
13734;BME280;43298;52.560;13.508;2023-05-22T07:01:38;101126.03;;;21.70;91.22
13734;BME280;43298;52.560;13.508;2023-05-22T07:04:04;101119.94;;;22.01;89.51
13734;BME280;43298;52.560;13.508;2023-05-22T07:06:30;101126.63;;;22.26;89.21
13734;BME280;43298;52.560;13.508;2023-05-22T07:08:58;101126.13;;;22.11;88.27
13734;BME280;43298;52.560;13.508;2023-05-22T07:11:24;101119.63;;;22.15;87.73
13734;BME280;43298;52.560;13.508;2023-05-22T07:13:50;101125.38;;;22.41;89.57
13734;BME280;43298;52.560;13.508;2023-05-22T07:16:16;101131.41;;;22.73;85.26
13734;BME280;43298;52.560;13.508;2023-05-22T07:18:42;101128.31;;;22.27;86.02
13734;BME280;43298;52.560;13.508;2023-05-22T07:21:10;101131.63;;;22.60;85.75
13734;BME280;43298;52.560;13.508;2023-05-22T07:23:37;101132.16;;;22.43;86.38
13734;BME280;43298;52.560;13.508;2023-05-22T07:26:03;101126.00;;;22.54;86.08
13734;BME280;43298;52.560;13.508;2023-05-22T07:28:29;101126.53;;;22.48;87.74
13734;BME280;43298;52.560;13.508;2023-05-22T07:30:55;101112.25;;;22.80;86.08
13734;BME280;43298;52.560;13.508;2023-05-22T07:33:22;101125.56;;;22.49;86.52
13734;BME280;43298;52.560;13.508;2023-05-22T07:35:47;101119.72;;;22.66;87.45
13734;BME280;43298;52.560;13.508;2023-05-22T07:38:13;101126.47;;;22.59;85.94
13734;BME280;43298;52.560;13.508;2023-05-22T07:40:39;101121.38;;;22.67;85.96
13734;BME280;43298;52.560;13.508;2023-05-22T07:43:04;101119.06;;;22.83;86.20
13734;BME280;43298;52.560;13.508;2023-05-22T07:45:30;101113.78;;;23.13;84.21
13734;BME280;43298;52.560;13.508;2023-05-22T07:47:56;101113.72;;;23.43;82.54
13734;BME280;43298;52.560;13.508;2023-05-22T07:50:24;101112.25;;;23.88;80.91
13734;BME280;43298;52.560;13.508;2023-05-22T07:52:51;101109.59;;;23.88;80.13
13734;BME280;43298;52.560;13.508;2023-05-22T07:55:17;101109.72;;;23.87;81.08
13734;BME280;43298;52.560;13.508;2023-05-22T07:57:43;101113.94;;;24.08;80.09
13734;BME280;43298;52.560;13.508;2023-05-22T08:00:09;101111.53;;;23.58;80.46
13734;BME280;43298;52.560;13.508;2023-05-22T08:02:37;101116.88;;;24.05;79.08
13734;BME280;43298;52.560;13.508;2023-05-22T08:05:03;101111.50;;;24.43;79.91
13734;BME280;43298;52.560;13.508;2023-05-22T08:07:29;101113.38;;;23.95;79.41
13734;BME280;43298;52.560;13.508;2023-05-22T08:09:57;101115.88;;;24.06;79.19
13734;BME280;43298;52.560;13.508;2023-05-22T08:12:23;101118.78;;;24.13;78.53
13734;BME280;43298;52.560;13.508;2023-05-22T08:14:49;101110.78;;;24.51;77.70
13734;BME280;43298;52.560;13.508;2023-05-22T08:17:15;101110.50;;;25.00;77.18
13734;BME280;43298;52.560;13.508;2023-05-22T08:19:41;101111.69;;;24.78;77.00
13734;BME280;43298;52.560;13.508;2023-05-22T08:22:07;101119.16;;;25.19;74.83
13734;BME280;43298;52.560;13.508;2023-05-22T08:24:32;101105.31;;;25.87;73.46
13734;BME280;43298;52.560;13.508;2023-05-22T08:26:58;101108.56;;;25.81;71.85
13734;BME280;43298;52.560;13.508;2023-05-22T08:29:25;101102.38;;;25.38;70.82
13734;BME280;43298;52.560;13.508;2023-05-22T08:31:51;101102.25;;;25.30;71.30
13734;BME280;43298;52.560;13.508;2023-05-22T08:34:18;101101.47;;;25.47;71.39
13734;BME280;43298;52.560;13.508;2023-05-22T08:36:44;101096.56;;;25.25;72.89
13734;BME280;43298;52.560;13.508;2023-05-22T08:39:10;101086.25;;;25.22;72.87
13734;BME280;43298;52.560;13.508;2023-05-22T08:41:37;101088.91;;;25.49;70.82
13734;BME280;43298;52.560;13.508;2023-05-22T08:44:03;101090.31;;;25.78;71.36
13734;BME280;43298;52.560;13.508;2023-05-22T08:46:29;101092.09;;;26.31;69.16
13734;BME280;43298;52.560;13.508;2023-05-22T08:48:57;101090.56;;;26.02;69.74
13734;BME280;43298;52.560;13.508;2023-05-22T08:51:28;101089.59;;;26.55;69.22
13734;BME280;43298;52.560;13.508;2023-05-22T08:53:56;101085.09;;;25.69;68.26
13734;BME280;43298;52.560;13.508;2023-05-22T08:56:23;101087.47;;;25.54;68.84
13734;BME280;43298;52.560;13.508;2023-05-22T08:58:50;101090.31;;;25.78;67.56
13734;BME280;43298;52.560;13.508;2023-05-22T09:01:16;101080.75;;;26.21;66.32
13734;BME280;43298;52.560;13.508;2023-05-22T09:03:42;101080.94;;;26.53;66.44
13734;BME280;43298;52.560;13.508;2023-05-22T09:06:09;101070.25;;;26.11;66.98
13734;BME280;43298;52.560;13.508;2023-05-22T09:08:37;101066.88;;;25.83;67.33
13734;BME280;43298;52.560;13.508;2023-05-22T09:11:03;101066.88;;;25.83;68.59
13734;BME280;43298;52.560;13.508;2023-05-22T09:13:30;101067.34;;;25.61;68.34
13734;BME280;43298;52.560;13.508;2023-05-22T09:16:11;101060.59;;;25.32;66.70
13734;BME280;43298;52.560;13.508;2023-05-22T09:18:38;101061.75;;;25.64;67.41
13734;BME280;43298;52.560;13.508;2023-05-22T09:21:08;101066.53;;;26.22;66.72
13734;BME280;43298;52.560;13.508;2023-05-22T09:23:34;101068.50;;;26.45;65.10
13734;BME280;43298;52.560;13.508;2023-05-22T09:26:01;101064.31;;;26.43;64.93
13734;BME280;43298;52.560;13.508;2023-05-22T09:28:33;101067.41;;;26.89;63.63
13734;BME280;43298;52.560;13.508;2023-05-22T09:31:03;101049.91;;;27.20;62.41
13734;BME280;43298;52.560;13.508;2023-05-22T09:33:29;101049.41;;;26.75;61.40
13734;BME280;43298;52.560;13.508;2023-05-22T09:35:57;101053.38;;;27.21;61.39
13734;BME280;43298;52.560;13.508;2023-05-22T09:38:28;101062.25;;;26.29;62.33
13734;BME280;43298;52.560;13.508;2023-05-22T09:40:55;101050.22;;;26.42;63.43
13734;BME280;43298;52.560;13.508;2023-05-22T09:43:23;101051.78;;;26.02;62.96
13734;BME280;43298;52.560;13.508;2023-05-22T09:46:00;101053.09;;;25.98;63.29
13734;BME280;43298;52.560;13.508;2023-05-22T09:48:26;101052.69;;;26.10;63.47
13734;BME280;43298;52.560;13.508;2023-05-22T09:50:56;101048.66;;;25.88;63.50
13734;BME280;43298;52.560;13.508;2023-05-22T09:53:26;101043.91;;;25.74;64.10
13734;BME280;43298;52.560;13.508;2023-05-22T09:55:55;101052.00;;;25.90;63.98
13734;BME280;43298;52.560;13.508;2023-05-22T09:58:25;101051.91;;;26.77;63.38
13734;BME280;43298;52.560;13.508;2023-05-22T10:00:53;101042.72;;;26.97;62.14
13734;BME280;43298;52.560;13.508;2023-05-22T10:03:23;101043.47;;;27.23;61.10
13734;BME280;43298;52.560;13.508;2023-05-22T10:05:54;101036.03;;;27.50;60.03
13734;BME280;43298;52.560;13.508;2023-05-22T10:08:37;101037.53;;;28.01;58.80
13734;BME280;43298;52.560;13.508;2023-05-22T10:11:07;101038.19;;;27.71;59.67
13734;BME280;43298;52.560;13.508;2023-05-22T10:13:34;101032.97;;;27.21;58.71
13734;BME280;43298;52.560;13.508;2023-05-22T10:16:03;101032.19;;;27.53;59.99
13734;BME280;43298;52.560;13.508;2023-05-22T10:18:29;101033.88;;;26.88;59.62
13734;BME280;43298;52.560;13.508;2023-05-22T10:20:57;101027.31;;;26.67;60.49
13734;BME280;43298;52.560;13.508;2023-05-22T10:23:24;101029.94;;;27.08;60.67
13734;BME280;43298;52.560;13.508;2023-05-22T10:25:50;101028.53;;;27.22;58.01
13734;BME280;43298;52.560;13.508;2023-05-22T10:28:26;101020.31;;;26.99;57.84
13734;BME280;43298;52.560;13.508;2023-05-22T10:31:08;101020.09;;;26.51;58.52
13734;BME280;43298;52.560;13.508;2023-05-22T10:33:46;101020.22;;;26.42;59.77
13734;BME280;43298;52.560;13.508;2023-05-22T10:41:23;101015.53;;;26.36;59.10
13734;BME280;43298;52.560;13.508;2023-05-22T10:43:49;101010.31;;;26.93;57.67
13734;BME280;43298;52.560;13.508;2023-05-22T10:46:16;101013.66;;;26.54;58.49
13734;BME280;43298;52.560;13.508;2023-05-22T10:48:47;101002.63;;;26.66;59.62
13734;BME280;43298;52.560;13.508;2023-05-22T10:51:18;101001.56;;;26.59;58.59
13734;BME280;43298;52.560;13.508;2023-05-22T10:53:44;101000.00;;;26.74;58.57
13734;BME280;43298;52.560;13.508;2023-05-22T10:56:12;100997.66;;;27.37;57.03
13734;BME280;43298;52.560;13.508;2023-05-22T10:58:38;100993.69;;;27.33;57.60
13734;BME280;43298;52.560;13.508;2023-05-22T11:01:14;100990.69;;;27.44;57.57
13734;BME280;43298;52.560;13.508;2023-05-22T11:07:01;100989.81;;;28.07;54.33
13734;BME280;43298;52.560;13.508;2023-05-22T11:09:29;100981.34;;;27.96;55.48
13734;BME280;43298;52.560;13.508;2023-05-22T11:12:23;100977.69;;;27.81;54.40
13734;BME280;43298;52.560;13.508;2023-05-22T11:14:58;100978.22;;;27.28;53.22
13734;BME280;43298;52.560;13.508;2023-05-22T11:17:29;100978.69;;;27.08;53.76
13734;BME280;43298;52.560;13.508;2023-05-22T11:20:02;100978.03;;;27.70;53.05
13734;BME280;43298;52.560;13.508;2023-05-22T11:22:41;100978.22;;;27.60;52.84
13734;BME280;43298;52.560;13.508;2023-05-22T11:25:15;100977.22;;;27.53;51.91
13734;BME280;43298;52.560;13.508;2023-05-22T11:27:43;100975.06;;;27.97;51.17
13734;BME280;43298;52.560;13.508;2023-05-22T11:30:10;100966.47;;;28.25;50.73
13734;BME280;43298;52.560;13.508;2023-05-22T11:32:38;100977.13;;;28.25;50.11
13734;BME280;43298;52.560;13.508;2023-05-22T11:35:05;100966.66;;;28.24;50.79
13734;BME280;43298;52.560;13.508;2023-05-22T11:37:42;100974.97;;;28.29;49.15
13734;BME280;43298;52.560;13.508;2023-05-22T11:40:09;100972.75;;;28.40;49.11
13734;BME280;43298;52.560;13.508;2023-05-22T11:42:36;100964.91;;;28.55;49.08
13734;BME280;43298;52.560;13.508;2023-05-22T11:45:03;100961.94;;;28.42;49.00
13734;BME280;43298;52.560;13.508;2023-05-22T11:47:30;100968.63;;;28.30;49.66
13734;BME280;43298;52.560;13.508;2023-05-22T11:49:56;100956.28;;;28.45;48.81
13734;BME280;43298;52.560;13.508;2023-05-22T11:52:23;100950.66;;;27.85;49.95
13734;BME280;43298;52.560;13.508;2023-05-22T11:54:51;100956.28;;;27.98;49.12
13734;BME280;43298;52.560;13.508;2023-05-22T11:57:18;100955.78;;;28.80;47.63
13734;BME280;43298;52.560;13.508;2023-05-22T11:59:45;100950.56;;;28.87;47.24
13734;BME280;43298;52.560;13.508;2023-05-22T12:02:11;100959.34;;;29.03;46.42
13734;BME280;43298;52.560;13.508;2023-05-22T12:04:38;100946.34;;;27.84;48.32
13734;BME280;43298;52.560;13.508;2023-05-22T12:07:05;100940.22;;;28.30;48.69
13734;BME280;43298;52.560;13.508;2023-05-22T12:09:31;100948.13;;;28.00;47.96
13734;BME280;43298;52.560;13.508;2023-05-22T12:11:57;100946.09;;;28.10;47.40
13734;BME280;43298;52.560;13.508;2023-05-22T12:14:26;100943.84;;;27.75;48.52
13734;BME280;43298;52.560;13.508;2023-05-22T12:16:53;100944.13;;;28.81;48.20
13734;BME280;43298;52.560;13.508;2023-05-22T12:19:20;100941.63;;;28.49;47.37
13734;BME280;43298;52.560;13.508;2023-05-22T12:21:49;100932.59;;;28.89;46.87
13734;BME280;43298;52.560;13.508;2023-05-22T12:24:15;100934.00;;;29.30;45.75
13734;BME280;43298;52.560;13.508;2023-05-22T12:26:49;100925.69;;;28.41;45.23
13734;BME280;43298;52.560;13.508;2023-05-22T12:29:15;100921.00;;;28.51;46.11
13734;BME280;43298;52.560;13.508;2023-05-22T12:31:43;100933.03;;;29.00;45.24
13734;BME280;43298;52.560;13.508;2023-05-22T12:34:11;100925.75;;;28.25;45.31
13734;BME280;43298;52.560;13.508;2023-05-22T12:36:41;100923.91;;;28.33;45.24
13734;BME280;43298;52.560;13.508;2023-05-22T12:39:10;100927.34;;;28.50;44.51
13734;BME280;43298;52.560;13.508;2023-05-22T12:41:37;100927.44;;;28.87;43.45
13734;BME280;43298;52.560;13.508;2023-05-22T12:44:03;100928.69;;;28.46;44.85
13734;BME280;43298;52.560;13.508;2023-05-22T12:46:30;100914.66;;;29.50;42.82
13734;BME280;43298;52.560;13.508;2023-05-22T12:48:57;100927.16;;;29.27;43.18
13734;BME280;43298;52.560;13.508;2023-05-22T12:51:30;100923.22;;;29.23;42.70
13734;BME280;43298;52.560;13.508;2023-05-22T12:54:02;100927.41;;;30.06;41.55
13734;BME280;43298;52.560;13.508;2023-05-22T12:56:30;100914.81;;;30.00;41.33
13734;BME280;43298;52.560;13.508;2023-05-22T12:58:57;100920.75;;;30.46;41.33
13734;BME280;43298;52.560;13.508;2023-05-22T13:01:24;100922.78;;;29.86;41.66
13734;BME280;43298;52.560;13.508;2023-05-22T13:03:51;100923.38;;;30.10;41.09